Huvudsida
METAR-TAF:

METAR-TAF

Flygplatser :

Jijel Ferhat Abbas Airport

Jijel, Algeriet

latitud: 36-53N, longitud: 005-49E, höjd: 2 m

Aktuellt väderrapport

Denna rapport gjordes för 43 minuter sedan, klockan 19:00 UTC
Stilla vind
Temperatur 12°C
Fuktighet 94%
Tryck 1022 hPa
Sikt 10 km eller mer
Inga moln under 1 500 m eller inga cumulonimbus

METAR: DAAV 281900Z 00000KT CAVOK 12/11 Q1022

Tid: 20:43 (19:43 UTC)

Väderprognos

Denna rapport gjordes för 2 timmar och 43 minuter sedan, klockan 17:00 UTC
Prognos gäller från 28 kl. 18 UTC till 29 kl. 18 UTC
Vind 8 kt från nordväst
Sikt 10 km eller mer
Inga moln under 1 500 m eller inga cumulonimbus
Sannolikhet 30% :
Temporärt
från 29 kl. 02 UTC till 29 kl. 06 UTC
Sikt: 2000 m
Brutna moln på en höjd av 1000 ft
fuktdis

TAF: DAAV 281700Z 2818/2918 31008KT CAVOK PROB30 TEMPO 2902/2906 2000 BR BKN010

Aktuella väderrapporter och prognoser från 4000 flygplatser (METAR- och TAF-rapporter).

De tillgängliga stationerna syns som gula och röda prickar på kartan.

För musen över prickarna för att se namnen på stationerna.

Klicka sedan för att få väderrapporter och prognoser.

För att ändra kartan: Klicka på de gröna knapparna med ett svart kors på för att zooma in; den gröna knappen med ett streck på för att zooma ut; eller på de gröna pilarna för angränsande kartor.


METAR-TAF: